createdAt,value
2023-01-30T00:01:02.631Z,2.65
2023-01-30T00:03:29.313Z,2.70
2023-01-30T00:05:56.175Z,2.76
2023-01-30T00:08:23.057Z,2.70
2023-01-30T00:10:49.969Z,2.66
2023-01-30T00:13:16.884Z,2.77
2023-01-30T00:15:43.758Z,2.82
2023-01-30T00:18:10.428Z,2.72
2023-01-30T00:20:37.677Z,2.79
2023-01-30T00:23:05.077Z,2.79
2023-01-30T00:25:31.899Z,2.70
2023-01-30T00:28:01.992Z,2.82
2023-01-30T00:30:30.054Z,2.79
2023-01-30T00:32:58.355Z,2.83
2023-01-30T00:35:28.586Z,2.68
2023-01-30T00:37:58.920Z,2.68
2023-01-30T00:40:26.964Z,2.76
2023-01-30T00:43:12.785Z,2.83
2023-01-30T00:45:59.625Z,2.78
2023-01-30T00:48:26.753Z,2.83
2023-01-30T00:50:53.333Z,2.83
2023-01-30T00:53:19.987Z,2.83
2023-01-30T00:55:46.667Z,2.87
2023-01-30T00:58:14.491Z,2.74
2023-01-30T01:00:41.169Z,2.74
2023-01-30T01:03:07.916Z,2.70
2023-01-30T01:05:34.902Z,2.75
2023-01-30T01:08:01.700Z,2.66
2023-01-30T01:10:28.703Z,2.61
2023-01-30T01:12:55.230Z,2.47
2023-01-30T01:15:23.502Z,2.48
2023-01-30T01:17:50.458Z,2.53
2023-01-30T01:20:18.175Z,2.70
2023-01-30T01:22:44.779Z,2.64
2023-01-30T01:25:11.562Z,2.66
2023-01-30T01:27:39.633Z,2.50
2023-01-30T01:30:06.705Z,2.54
2023-01-30T01:32:33.330Z,2.59
2023-01-30T01:35:01.503Z,2.45
2023-01-30T01:37:28.123Z,2.49
2023-01-30T01:40:13.812Z,2.58
2023-01-30T01:42:40.800Z,2.56
2023-01-30T01:45:13.303Z,2.56
2023-01-30T01:47:45.658Z,2.62
2023-01-30T01:50:21.390Z,2.41
2023-01-30T01:52:52.088Z,2.45
2023-01-30T01:55:19.819Z,2.53
2023-01-30T01:57:51.297Z,2.45
2023-01-30T02:00:20.001Z,2.58
2023-01-30T02:02:52.076Z,2.65
2023-01-30T02:05:19.620Z,2.68
2023-01-30T02:07:51.635Z,2.63
2023-01-30T02:10:21.119Z,2.58
2023-01-30T02:12:48.284Z,2.50
2023-01-30T02:15:15.631Z,2.50
2023-01-30T02:17:42.332Z,2.53
2023-01-30T02:20:20.819Z,2.55
2023-01-30T02:22:56.141Z,2.49
2023-01-30T02:25:41.504Z,2.48
2023-01-30T02:28:30.293Z,2.48
2023-01-30T02:31:15.192Z,2.44
2023-01-30T02:34:20.297Z,2.36
2023-01-30T02:37:10.193Z,2.41
2023-01-30T02:39:55.937Z,2.38
2023-01-30T02:42:41.477Z,2.46
2023-01-30T02:45:29.235Z,2.47
2023-01-30T02:48:06.729Z,2.41
2023-01-30T02:50:39.187Z,2.32
2023-01-30T02:53:06.657Z,2.31
2023-01-30T02:55:33.457Z,2.27
2023-01-30T02:58:01.445Z,2.29
2023-01-30T03:00:50.891Z,2.22
2023-01-30T03:03:47.127Z,2.25
2023-01-30T03:06:33.389Z,2.26
2023-01-30T03:09:20.201Z,2.33
2023-01-30T03:11:54.325Z,2.33
2023-01-30T03:14:30.931Z,2.39
2023-01-30T03:16:58.684Z,2.41
2023-01-30T03:19:26.677Z,2.46
2023-01-30T03:21:53.321Z,2.40
2023-01-30T03:24:20.766Z,2.35
2023-01-30T03:26:52.530Z,2.51
2023-01-30T03:29:20.137Z,2.51
2023-01-30T03:31:47.164Z,2.52
2023-01-30T03:34:13.970Z,2.61
2023-01-30T03:36:40.675Z,2.65
2023-01-30T03:39:08.395Z,2.54
2023-01-30T03:41:35.147Z,2.64
2023-01-30T03:44:02.532Z,2.71
2023-01-30T03:46:29.586Z,2.72
2023-01-30T03:48:56.161Z,2.62
2023-01-30T03:51:22.748Z,2.77
2023-01-30T03:53:49.412Z,2.85
2023-01-30T03:56:16.856Z,2.84
2023-01-30T03:58:44.056Z,2.91
2023-01-30T04:01:19.787Z,2.87
2023-01-30T04:03:46.805Z,2.81
2023-01-30T04:06:14.336Z,2.86
2023-01-30T04:08:41.237Z,2.89
2023-01-30T04:11:10.380Z,2.94
2023-01-30T04:13:37.260Z,2.93
2023-01-30T04:16:19.147Z,2.99
2023-01-30T04:19:04.343Z,3.04
2023-01-30T04:21:32.707Z,2.98
2023-01-30T04:23:59.282Z,3.05
2023-01-30T04:26:26.731Z,3.08
2023-01-30T04:28:53.349Z,3.08
2023-01-30T04:31:19.977Z,3.18
2023-01-30T04:34:05.790Z,3.23
2023-01-30T04:36:32.403Z,3.16
2023-01-30T04:38:58.947Z,3.22
2023-01-30T04:41:27.078Z,3.35
2023-01-30T04:43:58.517Z,3.40
2023-01-30T04:46:25.079Z,3.41
2023-01-30T04:48:51.820Z,3.28
2023-01-30T04:51:18.397Z,3.42
2023-01-30T04:53:45.046Z,3.42
2023-01-30T04:56:11.770Z,3.39
2023-01-30T04:58:38.439Z,3.45
2023-01-30T05:01:26.017Z,3.58
2023-01-30T05:03:53.612Z,3.43
2023-01-30T05:06:21.566Z,3.46
2023-01-30T05:08:51.599Z,3.28
2023-01-30T05:11:18.386Z,3.28
2023-01-30T05:13:45.151Z,3.30
2023-01-30T05:16:12.736Z,3.39
2023-01-30T05:18:40.182Z,3.33
2023-01-30T05:21:20.602Z,3.16
2023-01-30T05:23:47.524Z,3.23
2023-01-30T05:26:14.806Z,3.13
2023-01-30T05:28:42.003Z,3.09
2023-01-30T05:31:11.424Z,2.93
2023-01-30T05:33:41.605Z,2.79
2023-01-30T05:36:12.458Z,2.87
2023-01-30T05:38:38.974Z,2.90
2023-01-30T05:41:07.717Z,2.89
2023-01-30T05:43:35.464Z,2.80
2023-01-30T05:46:03.742Z,2.87
2023-01-30T05:48:30.452Z,2.86
2023-01-30T05:50:59.856Z,2.87
2023-01-30T05:53:29.144Z,2.91
2023-01-30T05:55:59.229Z,2.98
2023-01-30T05:58:26.812Z,2.85
2023-01-30T06:00:53.664Z,2.83
2023-01-30T06:03:20.577Z,2.91
2023-01-30T06:05:47.215Z,2.97
2023-01-30T06:08:13.797Z,2.92
2023-01-30T06:10:40.312Z,2.82
2023-01-30T06:13:06.948Z,3.00
2023-01-30T06:15:33.470Z,3.06
2023-01-30T06:18:00.158Z,2.95
2023-01-30T06:20:26.760Z,3.03
2023-01-30T06:22:53.329Z,3.12
2023-01-30T06:25:20.121Z,3.15
2023-01-30T06:27:47.324Z,3.15
2023-01-30T06:30:14.142Z,3.15
2023-01-30T06:32:41.511Z,3.24
2023-01-30T06:35:08.534Z,3.21
2023-01-30T06:37:35.101Z,3.32
2023-01-30T06:40:02.186Z,3.31
2023-01-30T06:42:29.012Z,3.39
2023-01-30T06:44:55.557Z,3.44
2023-01-30T06:47:22.388Z,3.51
2023-01-30T06:49:49.258Z,3.58
2023-01-30T06:52:15.796Z,3.57
2023-01-30T06:54:42.369Z,3.64
2023-01-30T06:57:08.950Z,3.70
2023-01-30T06:59:35.500Z,3.72
2023-01-30T07:02:02.605Z,3.78
2023-01-30T07:04:29.251Z,3.77
2023-01-30T07:06:55.808Z,3.85
2023-01-30T07:09:22.335Z,3.95
2023-01-30T07:11:50.415Z,3.97
2023-01-30T07:14:16.964Z,3.97
2023-01-30T07:16:43.609Z,3.98
2023-01-30T07:19:10.205Z,4.00
2023-01-30T07:21:36.708Z,4.05
2023-01-30T07:24:03.258Z,4.05
2023-01-30T07:26:31.282Z,4.09
2023-01-30T07:28:57.958Z,4.17
2023-01-30T07:31:24.519Z,4.25
2023-01-30T07:33:51.092Z,4.25
2023-01-30T07:36:17.584Z,4.28
2023-01-30T07:38:44.117Z,4.38
2023-01-30T07:41:10.637Z,4.42
2023-01-30T07:43:37.195Z,4.51
2023-01-30T07:46:04.014Z,4.57
2023-01-30T07:48:30.587Z,4.58
2023-01-30T07:50:57.649Z,4.63
2023-01-30T07:53:24.200Z,4.67
2023-01-30T07:55:50.723Z,4.71
2023-01-30T07:58:17.632Z,4.63
2023-01-30T08:00:44.837Z,4.70
2023-01-30T08:03:13.357Z,4.74
2023-01-30T08:05:40.189Z,4.85
2023-01-30T08:08:06.837Z,4.93
2023-01-30T08:10:33.374Z,5.00
2023-01-30T08:13:00.123Z,5.07
2023-01-30T08:15:26.882Z,5.03
2023-01-30T08:17:58.168Z,5.06
2023-01-30T08:20:26.027Z,5.15
2023-01-30T08:22:53.004Z,5.19
2023-01-30T08:25:20.169Z,5.14
2023-01-30T08:27:46.659Z,5.12
2023-01-30T08:30:13.416Z,5.22
2023-01-30T08:32:40.057Z,5.11
2023-01-30T08:35:07.098Z,5.20
2023-01-30T08:37:33.613Z,5.21
2023-01-30T08:40:00.180Z,5.30
2023-01-30T08:42:26.742Z,5.35
2023-01-30T08:44:53.295Z,5.36
2023-01-30T08:47:19.927Z,5.43
2023-01-30T08:49:46.420Z,5.41
2023-01-30T08:52:12.953Z,5.44
2023-01-30T08:54:39.471Z,5.47
2023-01-30T08:57:06.974Z,5.54
2023-01-30T08:59:33.696Z,5.58
2023-01-30T09:02:00.266Z,5.62
2023-01-30T09:04:29.640Z,5.67
2023-01-30T09:06:56.167Z,5.61
2023-01-30T09:09:22.855Z,5.61
2023-01-30T09:11:49.354Z,5.66
2023-01-30T09:14:19.655Z,5.71
2023-01-30T09:16:47.184Z,5.71
2023-01-30T09:19:14.179Z,5.76
2023-01-30T09:21:40.720Z,5.74
2023-01-30T09:24:07.322Z,5.71
2023-01-30T09:26:34.032Z,5.93
2023-01-30T09:29:01.249Z,6.01
2023-01-30T09:31:27.948Z,6.03
2023-01-30T09:33:54.620Z,6.02
2023-01-30T09:36:21.103Z,6.09
2023-01-30T09:38:47.592Z,6.04
2023-01-30T09:41:31.798Z,6.10
2023-01-30T09:44:30.974Z,6.14
2023-01-30T09:47:11.510Z,6.20
2023-01-30T09:50:23.499Z,6.30
2023-01-30T09:53:01.915Z,6.40
2023-01-30T09:55:30.513Z,6.52
2023-01-30T09:57:58.858Z,6.47
2023-01-30T10:00:39.593Z,6.56
2023-01-30T10:03:09.091Z,6.61
2023-01-30T10:05:59.044Z,6.51
2023-01-30T10:08:52.713Z,6.40
2023-01-30T10:11:54.259Z,6.39
2023-01-30T10:14:38.984Z,6.42
2023-01-30T10:17:26.952Z,6.42
2023-01-30T10:20:13.275Z,6.63
2023-01-30T10:23:12.829Z,6.56
2023-01-30T10:25:46.463Z,6.75
2023-01-30T10:28:24.670Z,7.12
2023-01-30T10:30:53.462Z,7.35
2023-01-30T10:33:24.427Z,7.59
2023-01-30T10:36:16.533Z,7.75
2023-01-30T10:38:48.134Z,7.81
2023-01-30T10:41:27.412Z,7.69
2023-01-30T10:44:04.323Z,7.66
2023-01-30T10:46:42.404Z,7.43
2023-01-30T10:49:16.991Z,7.40
2023-01-30T10:51:55.572Z,7.35
2023-01-30T10:54:47.124Z,7.27
2023-01-30T10:57:22.668Z,7.17
2023-01-30T11:00:29.747Z,7.18
2023-01-30T11:03:08.482Z,7.15
2023-01-30T11:05:42.224Z,7.17
2023-01-30T11:08:17.516Z,7.20
2023-01-30T11:10:44.000Z,7.11
2023-01-30T11:13:16.947Z,7.09
2023-01-30T11:15:45.945Z,7.08
2023-01-30T11:18:42.234Z,7.13
2023-01-30T11:21:07.844Z,7.15
2023-01-30T11:23:42.515Z,7.08
2023-01-30T11:26:21.542Z,7.26
2023-01-30T11:28:49.082Z,7.32
2023-01-30T11:31:40.322Z,7.31
2023-01-30T11:34:16.470Z,7.32
2023-01-30T11:36:43.459Z,7.41
2023-01-30T11:39:12.963Z,7.29
2023-01-30T11:41:43.780Z,7.33
2023-01-30T11:44:11.177Z,7.39
2023-01-30T11:46:39.723Z,7.50
2023-01-30T11:49:48.145Z,7.58
2023-01-30T11:52:01.777Z,7.73
2023-01-30T11:54:35.325Z,7.92
2023-01-30T11:57:03.372Z,8.16
2023-01-30T11:59:49.667Z,8.17
2023-01-30T12:02:29.731Z,8.54
2023-01-30T12:05:04.619Z,8.78
2023-01-30T12:07:33.635Z,8.74
2023-01-30T12:10:00.400Z,8.48
2023-01-30T12:12:34.796Z,8.48
2023-01-30T12:15:17.052Z,8.40
2023-01-30T12:17:59.531Z,8.22
2023-01-30T12:20:44.914Z,8.39
2023-01-30T12:23:16.469Z,8.46
2023-01-30T12:25:55.046Z,8.48
2023-01-30T12:28:46.583Z,8.38
2023-01-30T12:31:19.138Z,8.26
2023-01-30T12:33:45.671Z,8.21
2023-01-30T12:36:20.448Z,8.06
2023-01-30T12:39:06.523Z,7.92
2023-01-30T12:44:57.440Z,8.12
2023-01-30T12:47:40.258Z,7.93
2023-01-30T12:50:23.848Z,8.07
2023-01-30T12:53:05.845Z,8.08
2023-01-30T12:55:41.805Z,7.98
2023-01-30T12:58:16.270Z,8.03
2023-01-30T13:00:52.819Z,8.06
2023-01-30T13:03:33.766Z,7.99
2023-01-30T13:06:20.029Z,8.27
2023-01-30T13:08:52.607Z,8.35
2023-01-30T13:11:45.529Z,8.25
2023-01-30T13:14:25.861Z,8.16
2023-01-30T13:17:03.012Z,8.10
2023-01-30T13:20:06.293Z,7.85
2023-01-30T13:22:40.803Z,7.83
2023-01-30T13:25:13.293Z,7.74
2023-01-30T13:27:44.901Z,7.81
2023-01-30T13:30:16.934Z,7.73
2023-01-30T13:32:47.391Z,7.75
2023-01-30T13:35:17.625Z,7.80
2023-01-30T13:37:46.824Z,7.74
2023-01-30T13:40:20.093Z,7.76
2023-01-30T13:43:11.524Z,7.68
2023-01-30T13:45:41.172Z,7.62
2023-01-30T13:48:42.810Z,7.52
2023-01-30T13:51:36.444Z,7.41
2023-01-30T13:54:16.081Z,7.31
2023-01-30T13:56:54.665Z,7.13
2023-01-30T13:59:50.729Z,6.96
2023-01-30T14:02:22.483Z,6.82
2023-01-30T14:04:56.554Z,6.70
2023-01-30T14:07:26.629Z,6.57
2023-01-30T14:10:23.755Z,6.27
2023-01-30T14:12:52.565Z,6.20
2023-01-30T14:15:24.391Z,6.01
2023-01-30T14:18:04.090Z,5.76
2023-01-30T14:20:48.050Z,5.57
2023-01-30T14:23:23.160Z,5.41
2023-01-30T14:25:56.642Z,5.42
2023-01-30T14:28:29.094Z,5.28
2023-01-30T14:30:59.161Z,5.09
2023-01-30T14:33:25.552Z,5.11
2023-01-30T14:35:58.204Z,5.08
2023-01-30T14:38:26.033Z,5.14
2023-01-30T14:40:58.567Z,5.02
2023-01-30T14:43:25.016Z,4.96
2023-01-30T14:46:00.734Z,5.03
2023-01-30T14:48:39.270Z,5.00
2023-01-30T14:51:12.769Z,4.92
2023-01-30T14:53:56.346Z,4.77
2023-01-30T14:56:58.473Z,4.78
2023-01-30T14:59:34.978Z,4.76
2023-01-30T15:02:23.816Z,4.71
2023-01-30T15:05:12.416Z,4.70
2023-01-30T15:07:45.914Z,4.77
2023-01-30T15:10:43.431Z,4.89
2023-01-30T15:13:24.173Z,4.73
2023-01-30T15:16:21.386Z,4.76
2023-01-30T15:19:03.723Z,4.67
2023-01-30T15:21:51.461Z,4.82
2023-01-30T15:24:39.765Z,4.92
2023-01-30T15:27:20.404Z,4.92
2023-01-30T15:30:00.825Z,4.90
2023-01-30T15:32:29.450Z,4.98
2023-01-30T15:34:58.726Z,5.02
2023-01-30T15:37:37.333Z,5.05
2023-01-30T15:40:30.288Z,5.07
2023-01-30T15:43:13.866Z,5.14
2023-01-30T15:45:59.144Z,5.12
2023-01-30T15:48:50.540Z,5.05
2023-01-30T15:51:21.305Z,5.10
2023-01-30T15:53:47.876Z,5.11
2023-01-30T15:56:19.756Z,5.22
2023-01-30T15:58:46.535Z,5.22
2023-01-30T16:01:18.907Z,5.29
2023-01-30T16:03:45.593Z,5.29
2023-01-30T16:06:32.989Z,5.28
2023-01-30T16:09:18.995Z,5.31
2023-01-30T16:11:46.075Z,5.35
2023-01-30T16:14:17.624Z,5.37
2023-01-30T16:16:53.433Z,5.34
2023-01-30T16:19:29.664Z,5.42
2023-01-30T16:21:59.183Z,5.38
2023-01-30T16:24:31.959Z,5.39
2023-01-30T16:27:08.521Z,5.37
2023-01-30T16:29:47.246Z,5.39
2023-01-30T16:32:14.655Z,5.29
2023-01-30T16:34:41.231Z,5.38
2023-01-30T16:37:16.775Z,5.35
2023-01-30T16:39:45.690Z,5.45
2023-01-30T16:42:27.890Z,5.45
2023-01-30T16:45:35.992Z,5.44
2023-01-30T16:48:17.532Z,5.38
2023-01-30T16:50:48.195Z,5.43
2023-01-30T16:53:18.397Z,5.47
2023-01-30T16:56:04.879Z,5.29
2023-01-30T16:58:33.677Z,5.47
2023-01-30T17:01:01.951Z,5.39
2023-01-30T17:03:37.577Z,5.39
2023-01-30T17:06:12.653Z,5.39
2023-01-30T17:08:47.635Z,5.35
2023-01-30T17:11:37.892Z,5.32
2023-01-30T17:14:26.625Z,5.21
2023-01-30T17:17:07.678Z,5.23
2023-01-30T17:19:34.579Z,5.06
2023-01-30T17:22:04.795Z,5.24
2023-01-30T17:24:31.481Z,5.20
2023-01-30T17:27:00.215Z,5.25
2023-01-30T17:29:41.805Z,5.19
2023-01-30T17:32:14.030Z,5.17
2023-01-30T17:34:41.297Z,5.27
2023-01-30T17:37:20.244Z,5.24
2023-01-30T17:39:47.464Z,5.31
2023-01-30T17:42:15.230Z,5.28
2023-01-30T17:44:41.776Z,5.34
2023-01-30T17:47:11.457Z,5.44
2023-01-30T17:49:38.150Z,5.36
2023-01-30T17:52:04.936Z,5.41
2023-01-30T17:54:31.713Z,5.47
2023-01-30T17:57:03.414Z,5.47
2023-01-30T17:59:31.139Z,5.57
2023-01-30T18:01:58.867Z,5.54
2023-01-30T18:04:25.454Z,5.57
2023-01-30T18:06:59.039Z,5.63
2023-01-30T18:09:26.907Z,5.74
2023-01-30T18:11:53.525Z,5.70
2023-01-30T18:14:21.304Z,5.69
2023-01-30T18:16:48.744Z,5.73
2023-01-30T18:19:23.914Z,5.78
2023-01-30T18:21:50.484Z,5.80
2023-01-30T18:24:17.113Z,5.88
2023-01-30T18:26:43.956Z,5.89
2023-01-30T18:29:10.713Z,5.99
2023-01-30T18:31:38.414Z,5.99
2023-01-30T18:34:05.084Z,5.90
2023-01-30T18:36:33.796Z,5.97
2023-01-30T18:39:00.571Z,6.03
2023-01-30T18:41:27.235Z,6.00
2023-01-30T18:43:55.387Z,5.99
2023-01-30T18:46:21.932Z,5.99
2023-01-30T18:48:48.912Z,5.96
2023-01-30T18:51:20.545Z,5.98
2023-01-30T18:53:48.558Z,5.84
2023-01-30T18:56:17.116Z,6.06
2023-01-30T18:58:44.982Z,5.98
2023-01-30T19:01:14.978Z,6.14
2023-01-30T19:03:41.989Z,6.00
2023-01-30T19:06:11.673Z,5.98
2023-01-30T19:08:38.328Z,6.01
2023-01-30T19:11:26.115Z,5.95
2023-01-30T19:13:54.031Z,6.11
2023-01-30T19:16:21.352Z,5.97
2023-01-30T19:18:47.950Z,5.89
2023-01-30T19:21:14.408Z,5.90
2023-01-30T19:23:40.935Z,6.01
2023-01-30T19:26:07.918Z,5.96
2023-01-30T19:28:35.386Z,5.91
2023-01-30T19:31:09.311Z,5.85
2023-01-30T19:33:36.147Z,5.89
2023-01-30T19:36:13.524Z,5.92
2023-01-30T19:38:40.647Z,5.77
2023-01-30T19:41:11.910Z,5.86
2023-01-30T19:43:39.169Z,5.94
2023-01-30T19:46:06.218Z,5.95
2023-01-30T19:48:32.808Z,5.90
2023-01-30T19:51:05.399Z,5.86
2023-01-30T19:53:33.451Z,5.78
2023-01-30T19:55:59.992Z,5.85
2023-01-30T19:58:26.878Z,5.80
2023-01-30T20:00:53.373Z,5.78
2023-01-30T20:03:19.906Z,5.76
2023-01-30T20:05:46.478Z,5.75
2023-01-30T20:08:22.040Z,5.63
2023-01-30T20:11:00.917Z,5.66
2023-01-30T20:13:27.451Z,5.70
2023-01-30T20:15:54.682Z,5.66
2023-01-30T20:18:21.224Z,5.63
2023-01-30T20:20:47.776Z,5.57
2023-01-30T20:23:14.373Z,5.62
2023-01-30T20:25:40.875Z,5.60
2023-01-30T20:28:07.416Z,5.61
2023-01-30T20:30:33.958Z,5.73
2023-01-30T20:33:00.464Z,5.61
2023-01-30T20:35:26.981Z,5.68
2023-01-30T20:37:53.534Z,5.68
2023-01-30T20:40:20.359Z,5.66
2023-01-30T20:42:48.801Z,5.66
2023-01-30T20:45:15.472Z,5.70
2023-01-30T20:47:42.106Z,5.65
2023-01-30T20:50:09.361Z,5.55
2023-01-30T20:52:38.382Z,5.43
2023-01-30T20:55:05.462Z,5.47
2023-01-30T20:57:31.984Z,5.52
2023-01-30T20:59:58.481Z,5.57
2023-01-30T21:02:24.999Z,5.61
2023-01-30T21:04:51.934Z,5.65
2023-01-30T21:07:18.406Z,5.68
2023-01-30T21:09:45.011Z,5.65
2023-01-30T21:12:13.038Z,5.74
2023-01-30T21:14:39.862Z,5.67
2023-01-30T21:17:06.477Z,5.67
2023-01-30T21:19:33.002Z,5.70
2023-01-30T21:22:04.450Z,5.81
2023-01-30T21:24:30.925Z,5.59
2023-01-30T21:26:57.474Z,5.72
2023-01-30T21:29:26.063Z,5.76
2023-01-30T21:31:53.057Z,5.74
2023-01-30T21:34:19.810Z,5.63
2023-01-30T21:37:09.084Z,5.63
2023-01-30T21:39:54.311Z,5.54
2023-01-30T21:42:40.391Z,5.44
2023-01-30T21:45:07.579Z,5.43
2023-01-30T21:47:34.145Z,5.36
2023-01-30T21:50:00.683Z,5.34
2023-01-30T21:52:27.158Z,5.34
2023-01-30T21:54:54.438Z,5.35
2023-01-30T21:57:20.922Z,5.30
2023-01-30T21:59:47.461Z,5.38
2023-01-30T22:02:13.950Z,5.25
2023-01-30T22:04:40.465Z,5.21
2023-01-30T22:07:07.119Z,5.09
2023-01-30T22:09:33.720Z,5.04
2023-01-30T22:12:00.238Z,4.95
2023-01-30T22:14:26.750Z,4.95
2023-01-30T22:16:53.327Z,4.97
2023-01-30T22:19:19.935Z,4.93
2023-01-30T22:21:46.587Z,4.93
2023-01-30T22:24:13.343Z,4.92
2023-01-30T22:26:39.880Z,4.92
2023-01-30T22:29:06.659Z,4.87
2023-01-30T22:31:35.484Z,4.83
2023-01-30T22:34:02.758Z,4.81
2023-01-30T22:36:31.354Z,4.72
2023-01-30T22:38:57.979Z,4.79
2023-01-30T22:41:25.992Z,4.78
2023-01-30T22:43:55.407Z,4.75
2023-01-30T22:46:27.496Z,4.78
2023-01-30T22:48:54.529Z,4.67
2023-01-30T22:51:25.934Z,4.68
2023-01-30T22:53:55.487Z,4.65
2023-01-30T22:56:23.891Z,4.74
2023-01-30T22:58:50.482Z,4.75
2023-01-30T23:01:25.463Z,4.75
2023-01-30T23:04:05.991Z,4.69
2023-01-30T23:06:32.864Z,4.60
2023-01-30T23:09:00.258Z,4.63
2023-01-30T23:11:44.768Z,4.59
2023-01-30T23:14:14.626Z,4.65
2023-01-30T23:16:43.237Z,4.63
2023-01-30T23:19:11.336Z,4.68
2023-01-30T23:21:39.431Z,4.65
2023-01-30T23:24:09.386Z,4.57
2023-01-30T23:26:38.103Z,4.48
2023-01-30T23:29:08.339Z,4.62
2023-01-30T23:31:36.559Z,4.67
2023-01-30T23:34:04.942Z,4.58
2023-01-30T23:36:31.623Z,4.54
2023-01-30T23:38:59.028Z,4.55
2023-01-30T23:41:28.098Z,4.53
2023-01-30T23:43:55.043Z,4.52
2023-01-30T23:46:33.420Z,4.53
2023-01-30T23:49:02.428Z,4.55
2023-01-30T23:51:30.951Z,4.51
2023-01-30T23:53:57.827Z,4.51
2023-01-30T23:56:26.932Z,4.55
2023-01-30T23:58:53.501Z,4.56
